createdAt,value
2023-09-08T00:02:30.373Z,19.50
2023-09-08T00:04:57.220Z,20.25
2023-09-08T00:07:24.061Z,18.45
2023-09-08T00:09:50.926Z,17.40
2023-09-08T00:12:18.133Z,15.93
2023-09-08T00:14:45.326Z,16.92
2023-09-08T00:17:12.233Z,14.75
2023-09-08T00:19:39.759Z,13.38
2023-09-08T00:22:07.584Z,12.50
2023-09-08T00:24:34.770Z,15.90
2023-09-08T00:27:01.646Z,14.77
2023-09-08T00:29:28.672Z,15.43
2023-09-08T00:31:55.608Z,14.13
2023-09-08T00:34:22.349Z,12.25
2023-09-08T00:36:49.024Z,15.40
2023-09-08T00:39:15.742Z,15.02
2023-09-08T00:41:42.432Z,15.00
2023-09-08T00:44:10.320Z,15.15
2023-09-08T00:46:37.364Z,14.88
2023-09-08T00:49:04.364Z,16.42
2023-09-08T00:51:31.399Z,15.38
2023-09-08T00:53:58.291Z,13.93
2023-09-08T00:56:25.648Z,15.20
2023-09-08T00:58:52.466Z,16.00
2023-09-08T01:01:19.199Z,13.70
2023-09-08T01:03:45.932Z,14.82
2023-09-08T01:06:13.579Z,15.05
2023-09-08T01:08:40.760Z,15.50
2023-09-08T01:11:08.342Z,15.68
2023-09-08T01:13:35.125Z,16.40
2023-09-08T01:16:02.977Z,16.58
2023-09-08T01:18:29.873Z,15.27
2023-09-08T01:21:27.528Z,17.42
2023-09-08T01:24:31.215Z,13.50
2023-09-08T01:26:58.473Z,16.63
2023-09-08T01:29:25.856Z,16.02
2023-09-08T01:31:52.942Z,19.52
2023-09-08T01:34:20.933Z,13.35
2023-09-08T01:36:47.775Z,17.15
2023-09-08T01:39:14.439Z,14.10
2023-09-08T01:41:41.100Z,14.38
2023-09-08T01:44:11.645Z,14.98
2023-09-08T01:46:39.892Z,12.43
2023-09-08T01:49:06.790Z,20.45
2023-09-08T01:51:33.597Z,15.65
2023-09-08T01:54:00.319Z,11.98
2023-09-08T01:56:27.392Z,18.67
2023-09-08T01:58:54.168Z,14.07
2023-09-08T02:01:20.972Z,15.50
2023-09-08T02:03:47.804Z,19.05
2023-09-08T02:06:14.461Z,12.70
2023-09-08T02:08:41.217Z,15.07
2023-09-08T02:11:07.886Z,15.75
2023-09-08T02:13:34.633Z,13.13
2023-09-08T02:16:01.401Z,14.65
2023-09-08T02:18:29.453Z,17.85
2023-09-08T02:20:56.293Z,14.98
2023-09-08T02:23:23.050Z,14.73
2023-09-08T02:25:50.057Z,19.58
2023-09-08T02:28:16.883Z,21.75
2023-09-08T02:30:43.743Z,15.48
2023-09-08T02:33:10.679Z,15.40
2023-09-08T02:35:40.014Z,21.08
2023-09-08T02:38:06.972Z,14.48
2023-09-08T02:40:35.562Z,12.43
2023-09-08T02:43:03.421Z,14.43
2023-09-08T02:45:31.105Z,14.35
2023-09-08T02:47:58.958Z,19.30
2023-09-08T02:50:25.699Z,18.02
2023-09-08T02:52:52.453Z,17.52
2023-09-08T02:55:19.225Z,11.93
2023-09-08T02:57:45.986Z,15.75
2023-09-08T03:00:13.299Z,15.40
2023-09-08T03:02:40.081Z,15.23
2023-09-08T03:05:07.234Z,20.45
2023-09-08T03:07:35.114Z,15.55
2023-09-08T03:10:01.887Z,16.30
2023-09-08T03:12:28.620Z,19.98
2023-09-08T03:14:56.133Z,14.60
2023-09-08T03:17:22.878Z,14.93
2023-09-08T03:19:49.693Z,13.38
2023-09-08T03:22:16.453Z,15.27
2023-09-08T03:24:43.227Z,16.52
2023-09-08T03:27:09.897Z,16.95
2023-09-08T03:29:36.601Z,17.15
2023-09-08T03:32:03.575Z,15.95
2023-09-08T03:34:30.487Z,15.27
2023-09-08T03:36:57.247Z,15.65
2023-09-08T03:39:23.910Z,15.43
2023-09-08T03:41:50.684Z,15.32
2023-09-08T03:44:17.442Z,15.57
2023-09-08T03:46:44.228Z,18.63
2023-09-08T03:49:11.005Z,14.38
2023-09-08T03:51:37.664Z,15.43
2023-09-08T03:54:04.756Z,18.60
2023-09-08T03:56:31.621Z,18.67
2023-09-08T03:58:58.420Z,13.90
2023-09-08T04:01:25.266Z,15.85
2023-09-08T04:03:52.083Z,17.33
2023-09-08T04:06:18.829Z,23.90
2023-09-08T04:08:45.585Z,18.38
2023-09-08T04:11:12.289Z,19.80
2023-09-08T04:13:38.970Z,21.27
2023-09-08T04:16:06.438Z,16.50
2023-09-08T04:18:33.292Z,19.48
2023-09-08T04:21:00.148Z,14.80
2023-09-08T04:23:26.924Z,15.32
2023-09-08T04:25:53.671Z,17.67
2023-09-08T04:28:20.470Z,17.63
2023-09-08T04:30:47.204Z,14.27
2023-09-08T04:33:14.049Z,14.75
2023-09-08T04:35:40.882Z,15.90
2023-09-08T04:38:08.017Z,15.15
2023-09-08T04:40:34.871Z,21.63
2023-09-08T04:43:01.816Z,17.38
2023-09-08T04:45:28.638Z,13.95
2023-09-08T04:47:55.451Z,15.40
2023-09-08T04:50:22.284Z,15.15
2023-09-08T04:52:49.082Z,13.38
2023-09-08T04:55:15.876Z,14.07
2023-09-08T04:57:42.561Z,18.08
2023-09-08T05:00:09.708Z,19.35
2023-09-08T05:02:36.648Z,17.05
2023-09-08T05:05:03.503Z,15.45
2023-09-08T05:07:30.204Z,14.38
2023-09-08T05:09:57.987Z,19.98
2023-09-08T05:12:25.068Z,16.35
2023-09-08T05:14:57.004Z,17.23
2023-09-08T05:17:25.420Z,14.68
2023-09-08T05:19:52.139Z,19.67
2023-09-08T05:22:18.945Z,14.82
2023-09-08T05:24:45.654Z,14.80
2023-09-08T05:27:12.482Z,13.95
2023-09-08T05:29:39.326Z,15.38
2023-09-08T05:32:06.189Z,16.60
2023-09-08T05:34:32.971Z,15.80
2023-09-08T05:36:59.728Z,15.82
2023-09-08T05:39:26.554Z,13.68
2023-09-08T05:41:53.290Z,17.95
2023-09-08T05:44:20.025Z,19.48
2023-09-08T05:46:46.931Z,19.63
2023-09-08T05:49:15.399Z,16.48
2023-09-08T05:51:42.284Z,16.85
2023-09-08T05:54:09.052Z,17.77
2023-09-08T05:56:35.847Z,16.88
2023-09-08T05:59:02.762Z,20.65
2023-09-08T06:01:30.662Z,17.10
2023-09-08T06:03:57.672Z,14.32
2023-09-08T06:06:24.631Z,15.02
2023-09-08T06:08:51.297Z,14.93
2023-09-08T06:11:18.324Z,15.77
2023-09-08T06:13:45.023Z,17.00
2023-09-08T06:16:11.826Z,18.83
2023-09-08T06:18:41.593Z,16.08
2023-09-08T06:21:08.693Z,16.48
2023-09-08T06:23:37.845Z,15.50
2023-09-08T06:26:04.925Z,15.35
2023-09-08T06:28:31.778Z,12.90
2023-09-08T06:30:58.655Z,12.55
2023-09-08T06:33:25.936Z,12.90
2023-09-08T06:35:55.038Z,11.40
2023-09-08T06:38:21.978Z,12.75
2023-09-08T06:40:49.338Z,12.30
2023-09-08T06:43:16.115Z,10.73
2023-09-08T06:45:42.839Z,14.18
2023-09-08T06:48:09.682Z,14.68
2023-09-08T06:50:36.544Z,12.68
2023-09-08T06:53:03.337Z,14.25
2023-09-08T06:55:30.141Z,12.98
2023-09-08T06:57:56.954Z,12.05
2023-09-08T07:00:23.708Z,12.10
2023-09-08T07:02:53.524Z,11.98
2023-09-08T07:05:20.438Z,12.88
2023-09-08T07:07:49.413Z,10.85
2023-09-08T07:10:16.185Z,13.35
2023-09-08T07:12:42.897Z,13.32
2023-09-08T07:15:10.588Z,16.98
2023-09-08T07:17:37.383Z,14.60
2023-09-08T07:20:04.644Z,12.45
2023-09-08T07:22:31.375Z,13.32
2023-09-08T07:24:58.058Z,12.85
2023-09-08T07:27:24.810Z,10.15
2023-09-08T07:29:51.506Z,12.32
2023-09-08T07:32:19.136Z,13.85
2023-09-08T07:34:45.968Z,10.77
2023-09-08T07:37:12.760Z,11.02
2023-09-08T07:39:39.529Z,12.63
2023-09-08T07:42:06.345Z,11.35
2023-09-08T07:44:33.251Z,11.30
2023-09-08T07:47:00.065Z,11.77
2023-09-08T07:49:26.844Z,10.07
2023-09-08T07:51:53.630Z,10.23
2023-09-08T07:54:20.948Z,10.93
2023-09-08T07:56:48.302Z,11.40
2023-09-08T07:59:15.148Z,11.95
2023-09-08T08:01:42.039Z,10.85
2023-09-08T08:04:09.029Z,11.70
2023-09-08T08:06:36.165Z,9.85
2023-09-08T08:09:03.395Z,10.07
2023-09-08T08:11:30.347Z,10.80
2023-09-08T08:13:58.078Z,14.00
2023-09-08T08:16:25.664Z,13.13
2023-09-08T08:18:52.933Z,9.90
2023-09-08T08:21:19.917Z,9.98
2023-09-08T08:23:46.724Z,12.88
2023-09-08T08:26:13.382Z,14.35
2023-09-08T08:28:40.123Z,9.52
2023-09-08T08:31:06.947Z,11.68
2023-09-08T08:33:33.929Z,11.65
2023-09-08T08:36:01.576Z,11.48
2023-09-08T08:38:28.500Z,13.27
2023-09-08T08:40:55.280Z,11.60
2023-09-08T08:43:23.769Z,12.55
2023-09-08T08:45:51.620Z,10.38
2023-09-08T08:48:22.101Z,12.23
2023-09-08T08:50:49.385Z,9.88
2023-09-08T08:53:18.593Z,8.80
2023-09-08T08:55:47.114Z,8.20
2023-09-08T08:58:15.887Z,12.60
2023-09-08T09:00:43.498Z,11.50
2023-09-08T09:03:15.256Z,9.27
2023-09-08T09:05:46.646Z,10.38
2023-09-08T09:08:30.558Z,8.95
2023-09-08T09:10:57.297Z,14.10
2023-09-08T09:13:23.994Z,12.95
2023-09-08T09:15:52.038Z,11.02
2023-09-08T09:18:18.929Z,8.23
2023-09-08T09:20:56.571Z,9.30
2023-09-08T09:23:33.888Z,10.13
2023-09-08T09:26:02.391Z,11.25
2023-09-08T09:28:32.356Z,14.13
2023-09-08T09:31:00.628Z,11.50
2023-09-08T09:33:29.254Z,9.77
2023-09-08T09:35:56.163Z,12.40
2023-09-08T09:38:23.221Z,15.95
2023-09-08T09:40:50.704Z,10.77
2023-09-08T09:43:18.288Z,9.57
2023-09-08T09:45:45.451Z,15.50
2023-09-08T09:48:13.568Z,8.63
2023-09-08T09:50:42.398Z,10.07
2023-09-08T09:53:13.055Z,9.57
2023-09-08T09:55:41.892Z,8.38
2023-09-08T09:58:12.004Z,8.00
2023-09-08T10:00:40.751Z,8.90
2023-09-08T10:03:08.342Z,13.13
2023-09-08T10:05:35.355Z,12.55
2023-09-08T10:08:02.272Z,10.32
2023-09-08T10:10:31.702Z,14.65
2023-09-08T10:13:03.871Z,11.80
2023-09-08T10:15:32.897Z,9.10
2023-09-08T10:18:01.475Z,8.32
2023-09-08T10:20:30.035Z,16.63
2023-09-08T10:23:13.198Z,11.85
2023-09-08T10:25:45.155Z,8.93
2023-09-08T10:28:14.312Z,8.18
2023-09-08T10:30:41.897Z,8.18
2023-09-08T10:33:10.158Z,7.13
2023-09-08T10:35:37.398Z,7.82
2023-09-08T10:38:29.893Z,9.73
2023-09-08T10:41:18.620Z,7.30
2023-09-08T10:43:55.602Z,9.95
2023-09-08T10:46:23.964Z,6.80
2023-09-08T10:48:50.853Z,8.38
2023-09-08T10:51:20.348Z,7.78
2023-09-08T10:53:53.174Z,7.38
2023-09-08T10:56:19.970Z,7.72
2023-09-08T10:58:55.596Z,10.43
2023-09-08T11:01:28.771Z,7.13
2023-09-08T11:03:56.086Z,6.83
2023-09-08T11:06:23.763Z,6.57
2023-09-08T11:08:54.559Z,8.90
2023-09-08T11:11:21.680Z,7.28
2023-09-08T11:13:48.615Z,9.40
2023-09-08T11:16:16.738Z,9.13
2023-09-08T11:18:46.549Z,7.97
2023-09-08T11:21:13.445Z,6.35
2023-09-08T11:23:40.340Z,7.45
2023-09-08T11:26:07.781Z,7.28
2023-09-08T11:28:35.095Z,7.72
2023-09-08T11:31:04.428Z,7.43
2023-09-08T11:33:36.205Z,9.30
2023-09-08T11:36:03.037Z,7.72
2023-09-08T11:38:31.151Z,6.05
2023-09-08T11:40:59.921Z,7.35
2023-09-08T11:43:28.023Z,9.48
2023-09-08T11:45:54.941Z,10.40
2023-09-08T11:48:21.793Z,9.60
2023-09-08T11:50:48.468Z,7.53
2023-09-08T11:53:20.856Z,8.48
2023-09-08T11:55:48.074Z,8.30
2023-09-08T11:58:15.815Z,6.25
2023-09-08T12:00:42.765Z,8.70
2023-09-08T12:03:13.904Z,14.52
2023-09-08T12:05:41.223Z,7.15
2023-09-08T12:08:07.988Z,7.97
2023-09-08T12:10:44.473Z,7.95
2023-09-08T12:13:11.553Z,9.52
2023-09-08T12:15:40.310Z,7.32
2023-09-08T12:18:07.388Z,7.32
2023-09-08T12:20:34.732Z,8.05
2023-09-08T12:23:04.181Z,7.47
2023-09-08T12:25:36.860Z,9.88
2023-09-08T12:28:06.027Z,7.97
2023-09-08T12:30:34.342Z,6.53
2023-09-08T12:33:02.960Z,6.35
2023-09-08T12:35:32.416Z,6.20
2023-09-08T12:38:06.713Z,7.68
2023-09-08T12:40:37.997Z,7.85
2023-09-08T12:43:12.132Z,7.82
2023-09-08T12:45:51.184Z,6.15
2023-09-08T12:48:17.918Z,6.95
2023-09-08T12:50:44.638Z,6.50
2023-09-08T12:53:11.304Z,6.05
2023-09-08T12:55:38.010Z,5.88
2023-09-08T12:58:04.998Z,5.90
2023-09-08T13:00:31.761Z,8.65
2023-09-08T13:02:58.533Z,7.35
2023-09-08T13:05:25.319Z,6.35
2023-09-08T13:07:52.143Z,7.90
2023-09-08T13:10:18.942Z,9.80
2023-09-08T13:12:46.338Z,10.25
2023-09-08T13:15:13.166Z,5.78
2023-09-08T13:17:39.918Z,9.20
2023-09-08T13:20:07.890Z,10.95
2023-09-08T13:22:35.537Z,8.40
2023-09-08T13:25:02.747Z,7.10
2023-09-08T13:27:29.477Z,6.50
2023-09-08T13:30:08.410Z,9.30
2023-09-08T13:32:35.564Z,7.13
2023-09-08T13:35:02.419Z,7.95
2023-09-08T13:37:29.276Z,8.40
2023-09-08T13:39:56.113Z,7.63
2023-09-08T13:42:22.974Z,8.50
2023-09-08T13:44:50.204Z,7.45
2023-09-08T13:47:16.950Z,7.72
2023-09-08T13:49:44.466Z,9.45
2023-09-08T13:52:12.855Z,8.40
2023-09-08T13:54:45.206Z,7.95
2023-09-08T13:57:14.126Z,10.45
2023-09-08T13:59:43.500Z,7.85
2023-09-08T14:02:38.250Z,8.75
2023-09-08T14:05:02.593Z,6.90
2023-09-08T14:10:06.557Z,6.70
2023-09-08T14:12:37.898Z,7.80
2023-09-08T14:15:05.857Z,6.88
2023-09-08T14:17:32.696Z,10.13
2023-09-08T14:19:59.475Z,8.55
2023-09-08T14:22:27.840Z,8.77
2023-09-08T14:24:54.731Z,8.07
2023-09-08T14:27:21.426Z,7.50
2023-09-08T14:29:48.199Z,11.05
2023-09-08T14:32:15.025Z,9.65
2023-09-08T14:34:41.780Z,11.93
2023-09-08T14:37:11.361Z,9.93
2023-09-08T14:39:38.638Z,14.07
2023-09-08T14:42:06.872Z,16.33
2023-09-08T14:44:33.852Z,9.20
2023-09-08T14:47:00.671Z,12.63
2023-09-08T14:49:27.328Z,8.35
2023-09-08T14:51:53.986Z,11.02
2023-09-08T14:54:20.681Z,9.45
2023-09-08T14:56:47.415Z,8.75
2023-09-08T14:59:14.122Z,9.50
2023-09-08T15:01:42.090Z,8.80
2023-09-08T15:04:09.047Z,8.60
2023-09-08T15:06:35.922Z,7.93
2023-09-08T15:09:02.727Z,7.05
2023-09-08T15:11:29.801Z,9.38
2023-09-08T15:13:56.578Z,11.27
2023-09-08T15:16:23.390Z,9.63
2023-09-08T15:18:51.305Z,7.72
2023-09-08T15:21:18.976Z,8.88
2023-09-08T15:23:46.451Z,7.25
2023-09-08T15:26:13.194Z,6.97
2023-09-08T15:28:40.045Z,8.00
2023-09-08T15:31:06.884Z,11.38
2023-09-08T15:33:33.733Z,7.22
2023-09-08T15:36:00.767Z,6.72
2023-09-08T15:38:27.526Z,9.27
2023-09-08T15:41:09.774Z,8.25
2023-09-08T15:43:40.751Z,7.25
2023-09-08T15:46:09.194Z,6.95
2023-09-08T15:48:36.805Z,7.60
2023-09-08T15:51:04.296Z,7.15
2023-09-08T15:53:32.052Z,7.50
2023-09-08T15:55:59.120Z,7.35
2023-09-08T15:58:25.997Z,8.18
2023-09-08T16:00:52.799Z,6.85
2023-09-08T16:03:19.704Z,10.02
2023-09-08T16:05:46.665Z,7.07
2023-09-08T16:08:13.390Z,9.30
2023-09-08T16:10:40.165Z,7.57
2023-09-08T16:13:06.895Z,9.32
2023-09-08T16:15:33.777Z,8.38
2023-09-08T16:18:01.292Z,8.13
2023-09-08T16:20:28.252Z,7.25
2023-09-08T16:22:54.992Z,8.60
2023-09-08T16:25:21.806Z,7.25
2023-09-08T16:27:48.570Z,8.85
2023-09-08T16:30:15.460Z,10.25
2023-09-08T16:32:42.240Z,8.30
2023-09-08T16:56:10.301Z,9.20
2023-09-08T16:58:37.333Z,10.73
2023-09-08T17:01:06.988Z,10.40
2023-09-08T17:03:33.798Z,9.98
2023-09-08T17:06:00.669Z,8.23
2023-09-08T17:08:28.864Z,11.60
2023-09-08T17:10:57.336Z,15.88
2023-09-08T17:13:25.037Z,9.68
2023-09-08T17:15:51.883Z,11.48
2023-09-08T17:18:20.707Z,12.40
2023-09-08T17:20:49.784Z,9.73
2023-09-08T17:23:16.479Z,11.30
2023-09-08T17:25:44.660Z,13.70
2023-09-08T17:28:12.194Z,10.20
2023-09-08T17:30:39.054Z,10.82
2023-09-08T17:33:06.017Z,10.23
2023-09-08T17:35:36.350Z,14.63
2023-09-08T17:38:03.538Z,11.32
2023-09-08T17:40:30.365Z,11.18
2023-09-08T17:42:59.859Z,11.38
2023-09-08T17:45:26.649Z,10.77
2023-09-08T18:00:26.364Z,13.43
2023-09-08T18:02:53.126Z,14.63
2023-09-08T18:05:20.088Z,11.88
2023-09-08T18:07:46.809Z,12.43
2023-09-08T18:10:15.143Z,15.63
2023-09-08T18:12:42.516Z,12.02
2023-09-08T18:15:11.661Z,22.95
2023-09-08T18:17:38.538Z,12.23
2023-09-08T18:20:05.763Z,12.40
2023-09-08T18:22:33.126Z,13.52
2023-09-08T18:25:01.881Z,12.27
2023-09-08T18:27:31.222Z,14.50
2023-09-08T18:29:58.177Z,13.65
2023-09-08T18:32:25.095Z,11.18
2023-09-08T18:34:54.459Z,11.60
2023-09-08T18:37:21.694Z,10.27
2023-09-08T18:39:48.421Z,12.32
2023-09-08T18:42:15.176Z,17.17
2023-09-08T18:44:43.583Z,10.75
2023-09-08T18:47:11.335Z,12.35
2023-09-08T18:49:38.180Z,16.23
2023-09-08T18:52:05.940Z,12.98
2023-09-08T18:54:33.319Z,15.27
2023-09-08T18:57:00.271Z,10.60
2023-09-08T18:59:27.053Z,11.15
2023-09-08T19:01:54.641Z,13.20
2023-09-08T19:04:21.495Z,13.10
2023-09-08T19:06:48.169Z,13.20
2023-09-08T19:09:14.861Z,17.95
2023-09-08T19:11:41.758Z,14.00
2023-09-08T19:14:08.523Z,18.42
2023-09-08T19:16:35.281Z,18.77
2023-09-08T19:19:02.030Z,14.77
2023-09-08T19:21:31.041Z,14.40
2023-09-08T19:23:57.758Z,13.02
2023-09-08T19:26:24.499Z,14.38
2023-09-08T19:28:51.218Z,13.38
2023-09-08T19:31:18.063Z,19.73
2023-09-08T19:33:44.878Z,16.60
2023-09-08T19:36:11.877Z,17.75
2023-09-08T19:38:38.516Z,13.32
2023-09-08T19:41:05.576Z,13.02
2023-09-08T19:43:32.689Z,15.68
2023-09-08T19:46:06.073Z,13.43
2023-09-08T19:48:36.278Z,13.60
2023-09-08T19:51:06.881Z,12.55
2023-09-08T19:53:33.617Z,12.85
2023-09-08T19:56:00.477Z,15.82
2023-09-08T19:58:30.597Z,11.52
2023-09-08T20:01:08.051Z,13.23
2023-09-08T20:03:35.694Z,14.07
2023-09-08T20:06:03.869Z,12.23
2023-09-08T20:08:30.811Z,17.15
2023-09-08T20:10:57.472Z,17.15
2023-09-08T20:13:24.155Z,13.68
2023-09-08T20:16:06.492Z,11.68
2023-09-08T20:18:34.397Z,13.25
2023-09-08T20:21:06.208Z,13.75
2023-09-08T20:23:37.105Z,16.17
2023-09-08T20:26:04.189Z,12.43
2023-09-08T20:28:32.997Z,18.45
2023-09-08T20:31:14.859Z,12.23
2023-09-08T20:33:43.931Z,15.85
2023-09-08T20:36:10.714Z,12.88
2023-09-08T20:38:39.224Z,12.07
2023-09-08T20:41:06.628Z,15.32
2023-09-08T20:43:34.632Z,10.90
2023-09-08T20:46:04.804Z,17.50
2023-09-08T20:48:33.192Z,13.25
2023-09-08T20:51:04.270Z,13.52
2023-09-08T20:53:31.377Z,11.82
2023-09-08T20:55:59.133Z,18.10
2023-09-08T20:58:27.255Z,16.10
2023-09-08T21:00:59.997Z,15.48
2023-09-08T21:03:26.719Z,12.85
2023-09-08T21:05:53.432Z,14.52
2023-09-08T21:08:20.927Z,15.00
2023-09-08T21:10:48.382Z,15.73
2023-09-08T21:13:15.308Z,13.63
2023-09-08T21:15:43.059Z,16.38
2023-09-08T21:18:10.223Z,13.70
2023-09-08T21:20:37.226Z,13.65
2023-09-08T21:23:04.346Z,14.65
2023-09-08T21:25:35.274Z,15.63
2023-09-08T21:28:02.917Z,14.13
2023-09-08T21:30:30.798Z,13.98
2023-09-08T21:32:57.601Z,15.80
2023-09-08T21:35:27.401Z,13.70
2023-09-08T21:37:54.293Z,16.05
2023-09-08T21:40:21.063Z,17.48
2023-09-08T21:42:47.802Z,14.30
2023-09-08T21:45:14.858Z,13.77
2023-09-08T21:47:41.888Z,14.07
2023-09-08T21:50:09.269Z,15.95
2023-09-08T21:52:38.888Z,12.60
2023-09-08T21:55:07.456Z,14.93
2023-09-08T21:57:34.435Z,13.75
2023-09-08T22:00:01.197Z,20.40
2023-09-08T22:02:28.001Z,14.07
2023-09-08T22:04:55.905Z,16.17
2023-09-08T22:07:22.861Z,14.68
2023-09-08T22:09:52.019Z,14.70
2023-09-08T22:12:18.723Z,16.15
2023-09-08T22:14:45.410Z,17.33
2023-09-08T22:17:12.385Z,13.10
2023-09-08T22:19:39.117Z,22.20
2023-09-08T22:22:06.025Z,15.52
2023-09-08T22:24:33.150Z,14.85
2023-09-08T22:27:01.396Z,16.67
2023-09-08T22:29:28.108Z,15.32
2023-09-08T22:31:54.874Z,12.07
2023-09-08T22:34:21.791Z,16.00
2023-09-08T22:36:48.703Z,15.60
2023-09-08T22:39:15.413Z,16.02
2023-09-08T22:41:43.900Z,16.85
2023-09-08T22:44:10.679Z,19.38
2023-09-08T22:46:37.484Z,16.88
2023-09-08T22:49:04.941Z,18.67
2023-09-08T22:51:32.718Z,20.40
2023-09-08T22:53:59.409Z,23.00
2023-09-08T22:56:26.877Z,14.88
2023-09-08T22:58:56.470Z,14.35
2023-09-08T23:01:25.551Z,15.80
2023-09-08T23:03:52.439Z,18.05
2023-09-08T23:06:21.204Z,16.33
2023-09-08T23:08:47.854Z,15.00
2023-09-08T23:11:14.650Z,15.50
2023-09-08T23:13:41.631Z,13.40
2023-09-08T23:16:14.949Z,15.75
2023-09-08T23:18:41.954Z,17.17
2023-09-08T23:21:08.826Z,16.10
2023-09-08T23:23:36.225Z,15.30
2023-09-08T23:26:05.892Z,14.75
2023-09-08T23:28:32.626Z,15.93
2023-09-08T23:30:59.450Z,18.63
2023-09-08T23:33:26.266Z,15.73
2023-09-08T23:35:56.160Z,17.92
2023-09-08T23:38:22.828Z,17.55
2023-09-08T23:40:49.504Z,16.80
2023-09-08T23:43:16.203Z,14.18
2023-09-08T23:45:46.736Z,21.75
2023-09-08T23:48:13.743Z,20.50
2023-09-08T23:50:49.607Z,16.50
2023-09-08T23:53:16.349Z,13.88
2023-09-08T23:55:43.006Z,19.15
2023-09-08T23:58:09.718Z,16.67
